Time;durP1;ratioP1;P1;durP2;ratioP2;P2;SDS_P1;SDS_P2;PMS_P1;PMS_P2;Temp;Humidity;BMP_temperature;BMP_pressure;BME280_temperature;BME280_humidity;BME280_pressure;Samples;Min_cycle;Max_cycle;Signal;HPM_P1;HPM_P2
2023/09/15 00:00:26;;;;;;;9.18;3.60;;;;;;;-144.73;100.00;54477.47;5035967;28;20029;-70
2023/09/15 00:02:56;;;;;;;13.23;3.20;;;;;;;-144.73;100.00;54485.69;5036837;28;20049;-70
2023/09/15 00:05:23;;;;;;;9.82;3.72;;;;;;;-144.73;100.00;54506.22;5036182;28;20091;-70
2023/09/15 00:07:48;;;;;;;5.55;3.20;;;;;;;-144.73;100.00;54424.13;5053863;28;20044;-70
2023/09/15 00:10:19;;;;;;;7.35;2.80;;;;;;;-144.73;100.00;54452.84;5036097;28;20025;-70
2023/09/15 00:12:44;;;;;;;10.35;3.25;;;;;;;-144.73;100.00;54456.97;5036586;28;20029;-70
2023/09/15 00:15:10;;;;;;;5.80;2.72;;;;;;;-144.73;100.00;54452.84;5035748;28;20033;-70
2023/09/15 00:17:38;;;;;;;7.90;3.22;;;;;;;-144.73;100.00;54452.84;5037034;28;20068;-70
2023/09/15 00:20:12;;;;;;;5.75;2.67;;;;;;;-144.73;100.00;54452.84;5036377;28;20097;-71
2023/09/15 00:22:37;;;;;;;12.52;3.05;;;;;;;-144.73;100.00;54473.38;5037248;28;20026;-70
2023/09/15 00:25:03;;;;;;;7.40;3.22;;;;;;;-144.73;100.00;54485.69;5036546;28;20041;-70
2023/09/15 00:27:28;;;;;;;7.72;2.78;;;;;;;-144.73;100.00;54407.69;5037387;28;20032;-70
2023/09/15 00:29:54;;;;;;;8.68;3.40;;;;;;;-144.73;100.00;54481.59;5036667;28;20014;-70
2023/09/15 00:32:19;;;;;;;7.38;2.95;;;;;;;-144.73;100.00;54469.28;5036221;28;20033;-70
2023/09/15 00:34:44;;;;;;;8.85;3.30;;;;;;;-144.73;100.00;54539.06;5037514;28;20021;-70
2023/09/15 00:37:10;;;;;;;11.00;3.30;;;;;;;-144.73;100.00;54448.75;5036308;28;20025;-70
2023/09/15 00:39:35;;;;;;;9.73;3.15;;;;;;;-144.73;100.00;54434.38;5036861;28;20072;-70
2023/09/15 00:42:00;;;;;;;10.43;4.43;;;;;;;-144.73;100.00;54448.75;5035983;28;20040;-70
2023/09/15 00:44:26;;;;;;;6.75;3.58;;;;;;;-144.73;100.00;54461.06;5036255;28;20585;-70
2023/09/15 00:46:52;;;;;;;16.08;4.32;;;;;;;-144.73;100.00;54473.38;5036397;28;20037;-70
2023/09/15 00:49:17;;;;;;;16.15;6.57;;;;;;;-144.73;100.00;54469.28;5053161;28;20021;-70
2023/09/15 00:51:43;;;;;;;8.43;3.85;;;;;;;-144.73;100.00;54477.47;5035141;28;20119;-70
2023/09/15 00:54:09;;;;;;;9.13;4.95;;;;;;;-144.73;100.00;54456.97;5036655;28;20025;-70
2023/09/15 00:56:34;;;;;;;7.70;3.95;;;;;;;-144.73;100.00;54444.66;5036020;28;20033;-70
2023/09/15 00:59:00;;;;;;;10.13;4.88;;;;;;;-144.73;100.00;54465.16;5035993;28;20064;-70
2023/09/15 01:01:26;;;;;;;12.63;6.13;;;;;;;-144.73;100.00;54456.97;5036463;28;20050;-70
2023/09/15 01:03:53;;;;;;;7.80;4.35;;;;;;;-144.73;100.00;54465.16;5036180;28;20440;-70
2023/09/15 01:06:19;;;;;;;7.10;4.07;;;;;;;-144.73;100.00;54461.06;5035084;28;20492;-70
2023/09/15 01:08:45;;;;;;;9.35;3.33;;;;;;;-144.73;100.00;54448.75;5052516;28;20056;-70
2023/09/15 01:11:11;;;;;;;7.40;3.55;;;;;;;-144.73;100.00;54456.97;5036159;28;20043;-70
2023/09/15 01:13:36;;;;;;;8.85;3.40;;;;;;;-144.73;100.00;54485.69;5035855;28;20037;-70
2023/09/15 01:16:32;;;;;;;7.60;3.25;;;;;;;-144.73;100.00;54452.84;5035590;28;20044;-70
2023/09/15 01:19:24;;;;;;;6.53;2.75;;;;;;;-144.73;100.00;54473.38;5027842;28;20029;-70
2023/09/15 01:22:12;;;;;;;5.68;2.58;;;;;;;-144.73;100.00;54424.13;5052252;28;20117;-70
2023/09/15 01:25:29;;;;;;;10.13;3.33;;;;;;;-144.73;100.00;54440.53;5053050;28;20037;-70
2023/09/15 01:28:31;;;;;;;4.57;2.40;;;;;;;-144.73;100.00;54461.06;4940971;29;20043;-70
2023/09/15 01:30:59;;;;;;;8.60;3.40;;;;;;;-144.73;100.00;54456.97;4942861;29;20058;-70
2023/09/15 01:33:25;;;;;;;11.27;3.20;;;;;;;-144.73;100.00;54463.13;5003835;28;20037;-70
2023/09/15 01:35:51;;;;;;;6.72;2.72;;;;;;;-144.73;100.00;54424.13;5035972;28;20081;-70
2023/09/15 01:38:16;;;;;;;7.90;3.03;;;;;;;-144.73;100.00;54461.06;5036088;28;20025;-70
2023/09/15 01:40:41;;;;;;;7.10;2.92;;;;;;;-144.73;100.00;54450.81;5035456;28;20033;-70
2023/09/15 01:43:07;;;;;;;10.18;3.00;;;;;;;-144.73;100.00;54461.06;5035518;28;20515;-70
2023/09/15 01:45:33;;;;;;;5.30;2.47;;;;;;;-144.73;100.00;54473.38;5035359;28;20030;-70
2023/09/15 01:47:58;;;;;;;8.82;3.10;;;;;;;-144.73;100.00;54469.28;5035747;28;20496;-70
2023/09/15 01:50:25;;;;;;;4.50;2.58;;;;;;;-144.73;100.00;54489.81;5035076;28;20120;-70
2023/09/15 01:52:51;;;;;;;5.82;2.85;;;;;;;-144.73;100.00;54508.28;5035347;28;20079;-70
2023/09/15 01:55:18;;;;;;;7.65;2.90;;;;;;;-144.73;100.00;54469.28;5035589;28;20029;-70
2023/09/15 01:57:43;;;;;;;10.60;2.80;;;;;;;-144.73;100.00;54491.84;5035258;28;20037;-70
2023/09/15 02:00:10;;;;;;;4.13;2.65;;;;;;;-144.73;100.00;54477.47;5034552;28;20021;-70
2023/09/15 02:02:35;;;;;;;9.55;3.38;;;;;;;-144.73;100.00;54477.47;5035619;28;20057;-70
2023/09/15 02:05:00;;;;;;;5.20;3.13;;;;;;;-144.73;100.00;54444.66;5035202;28;20084;-70
2023/09/15 02:07:26;;;;;;;8.07;2.55;;;;;;;-144.73;100.00;54477.47;5035750;28;20075;-70
2023/09/15 02:09:51;;;;;;;13.00;3.97;;;;;;;-144.73;100.00;54461.06;5036363;28;20021;-70
2023/09/15 02:12:17;;;;;;;5.70;2.40;;;;;;;-144.73;100.00;54461.06;5035706;28;20067;-70
2023/09/15 02:14:44;;;;;;;9.70;3.10;;;;;;;-144.73;100.00;54465.16;5034891;28;20041;-71
2023/09/15 02:17:13;;;;;;;13.10;3.13;;;;;;;-144.73;100.00;54461.06;5035420;28;20097;-70
2023/09/15 02:19:38;;;;;;;8.18;2.67;;;;;;;-144.73;100.00;54481.59;5036536;28;20025;-70
2023/09/15 02:22:04;;;;;;;7.43;2.95;;;;;;;-144.73;100.00;54485.69;5034937;28;20152;-70
2023/09/15 02:24:31;;;;;;;7.72;2.80;;;;;;;-144.73;100.00;54481.59;5035185;28;20029;-70
2023/09/15 02:26:57;;;;;;;10.63;3.10;;;;;;;-144.73;100.00;54452.84;5034836;28;20045;-70
2023/09/15 02:29:22;;;;;;;11.43;3.03;;;;;;;-144.73;100.00;54440.53;5035502;28;20017;-70
2023/09/15 02:31:48;;;;;;;7.43;2.75;;;;;;;-144.73;100.00;54477.47;5034846;28;20044;-70
2023/09/15 02:34:13;;;;;;;9.57;2.72;;;;;;;-144.73;100.00;54440.53;5035532;28;20017;-70
2023/09/15 02:36:39;;;;;;;4.22;2.25;;;;;;;-144.73;100.00;54440.53;5034502;28;20080;-70
2023/09/15 02:39:04;;;;;;;12.02;3.30;;;;;;;-144.73;100.00;54469.28;5035555;28;20021;-70
2023/09/15 02:41:30;;;;;;;6.97;3.42;;;;;;;-144.73;100.00;54465.16;5034941;28;20037;-70
2023/09/15 02:43:55;;;;;;;12.05;3.83;;;;;;;-144.73;100.00;54477.47;5035540;28;20017;-70
2023/09/15 02:46:21;;;;;;;13.45;4.50;;;;;;;-144.73;100.00;54481.59;5034312;28;20040;-70
2023/09/15 02:48:46;;;;;;;10.23;3.22;;;;;;;-144.73;100.00;54448.75;5034495;28;20021;-70
2023/09/15 02:51:11;;;;;;;13.50;4.47;;;;;;;-144.73;100.00;54469.28;5034248;28;20065;-70
2023/09/15 02:53:37;;;;;;;12.27;4.85;;;;;;;-144.73;100.00;54444.66;5037539;28;20085;-70
2023/09/15 02:56:06;;;;;;;7.55;4.07;;;;;;;-144.73;100.00;54422.06;5054034;28;20034;-70
2023/09/15 02:58:32;;;;;;;8.25;4.53;;;;;;;-144.73;100.00;54428.22;5055279;28;20021;-70
2023/09/15 03:00:58;;;;;;;8.38;3.50;;;;;;;-144.73;100.00;54438.50;5053733;28;20045;-70
2023/09/15 03:03:23;;;;;;;6.55;2.78;;;;;;;-144.73;100.00;54452.84;5055021;28;20464;-70
2023/09/15 03:05:49;;;;;;;6.18;3.20;;;;;;;-144.73;100.00;54485.69;5053949;28;20040;-70
2023/09/15 03:08:14;;;;;;;9.40;4.00;;;;;;;-144.73;100.00;54493.91;5053799;28;20491;-70
2023/09/15 03:10:40;;;;;;;6.38;2.72;;;;;;;-144.73;100.00;54420.00;5053661;28;20022;-70
2023/09/15 03:13:05;;;;;;;8.63;3.20;;;;;;;-144.73;100.00;54432.31;5054718;28;20059;-70
2023/09/15 03:15:33;;;;;;;7.25;2.95;;;;;;;-144.73;100.00;54417.97;5054134;28;20040;-70
2023/09/15 03:17:58;;;;;;;10.45;3.47;;;;;;;-144.73;100.00;54438.50;5053819;28;20107;-70
2023/09/15 03:20:23;;;;;;;6.13;3.55;;;;;;;-144.73;100.00;54469.28;5053609;28;20056;-70
2023/09/15 03:22:50;;;;;;;8.07;3.03;;;;;;;-144.73;100.00;54477.47;5054743;28;20092;-70
2023/09/15 03:25:16;;;;;;;10.63;3.38;;;;;;;-144.73;100.00;54481.59;5053888;28;20102;-70
2023/09/15 03:27:41;;;;;;;8.07;3.22;;;;;;;-144.73;100.00;54481.59;5053912;28;20464;-70
2023/09/15 03:30:07;;;;;;;7.65;3.20;;;;;;;-144.73;100.00;54450.81;5054036;28;20075;-69
2023/09/15 03:32:33;;;;;;;9.05;2.83;;;;;;;-144.73;100.00;54444.66;5058500;28;20021;-70
2023/09/15 03:34:59;;;;;;;6.38;3.10;;;;;;;-144.73;100.00;54485.69;5057439;28;20020;-70
2023/09/15 03:37:25;;;;;;;6.80;3.30;;;;;;;-144.73;100.00;54411.81;5058395;28;20460;-70
2023/09/15 03:39:51;;;;;;;5.93;3.05;;;;;;;-144.73;100.00;54424.13;5057708;28;20020;-70
2023/09/15 03:42:16;;;;;;;6.10;3.47;;;;;;;-144.73;100.00;54469.28;5053545;28;20028;-70
2023/09/15 03:44:42;;;;;;;8.20;3.10;;;;;;;-144.73;100.00;54440.53;5037220;28;20085;-69
2023/09/15 03:47:08;;;;;;;7.13;2.83;;;;;;;-144.73;100.00;54473.38;5037669;28;20037;-70
2023/09/15 03:49:34;;;;;;;6.25;2.97;;;;;;;-144.73;100.00;54473.38;5038125;28;20484;-70
2023/09/15 03:52:00;;;;;;;13.65;3.60;;;;;;;-144.73;100.00;54444.66;5037581;28;20057;-70
2023/09/15 03:54:26;;;;;;;11.60;3.15;;;;;;;-144.73;100.00;54456.97;5038915;28;20017;-70
2023/09/15 03:56:51;;;;;;;7.28;3.28;;;;;;;-144.73;100.00;54465.16;5037990;28;20029;-70
2023/09/15 03:59:17;;;;;;;8.18;3.50;;;;;;;-144.73;100.00;54456.97;5038122;28;20032;-70
2023/09/15 04:01:42;;;;;;;6.45;3.90;;;;;;;-144.73;100.00;54481.59;5037778;28;20048;-70
2023/09/15 04:04:07;;;;;;;6.68;3.50;;;;;;;-144.73;100.00;54473.38;5038210;28;20152;-70
2023/09/15 04:06:35;;;;;;;8.85;3.38;;;;;;;-144.73;100.00;54456.97;5037367;28;20117;-70
2023/09/15 04:09:04;;;;;;;7.00;3.30;;;;;;;-144.73;100.00;54489.81;5037729;28;20029;-70
2023/09/15 04:11:31;;;;;;;6.40;3.47;;;;;;;-144.73;100.00;54463.13;5037072;28;20546;-71
2023/09/15 04:13:56;;;;;;;7.38;3.40;;;;;;;-144.73;100.00;54495.97;5037013;28;20095;-70
2023/09/15 04:16:22;;;;;;;10.68;4.03;;;;;;;-144.73;100.00;54446.69;5037209;28;20041;-70
2023/09/15 04:18:47;;;;;;;5.47;3.05;;;;;;;-144.73;100.00;54440.53;5037587;28;20041;-70
2023/09/15 04:21:13;;;;;;;9.00;3.83;;;;;;;-144.73;100.00;54452.84;5036826;28;20033;-70
2023/09/15 04:23:38;;;;;;;5.75;3.30;;;;;;;-144.73;100.00;54502.13;5037090;28;20361;-69
2023/09/15 04:26:04;;;;;;;13.07;3.75;;;;;;;-144.73;100.00;54452.84;5036108;28;20060;-70
2023/09/15 04:28:29;;;;;;;4.93;3.53;;;;;;;-144.73;100.00;54448.75;5037010;28;20029;-70
2023/09/15 04:30:54;;;;;;;6.05;3.53;;;;;;;-144.73;100.00;54461.06;5070252;28;20113;-70
2023/09/15 04:33:20;;;;;;;6.75;4.40;;;;;;;-144.73;100.00;54506.22;5037320;28;20536;-70
2023/09/15 04:35:46;;;;;;;7.85;3.17;;;;;;;-144.73;100.00;54489.81;5036543;28;20053;-70
2023/09/15 04:38:12;;;;;;;5.00;3.55;;;;;;;-144.73;100.00;54448.75;5036840;28;20031;-70
2023/09/15 04:40:37;;;;;;;8.30;3.50;;;;;;;-144.73;100.00;54446.69;5036032;28;20081;-70
2023/09/15 04:43:04;;;;;;;12.18;4.10;;;;;;;-144.73;100.00;54461.06;5068509;28;20033;-70
2023/09/15 04:45:29;;;;;;;7.10;3.28;;;;;;;-144.73;100.00;54407.69;5036259;28;20389;-71
2023/09/15 04:47:55;;;;;;;10.82;4.57;;;;;;;-144.73;100.00;54452.84;5035912;28;20033;-71
2023/09/15 04:50:20;;;;;;;8.80;4.25;;;;;;;-144.73;100.00;54485.69;5036143;28;20465;-70
2023/09/15 04:52:46;;;;;;;6.88;3.53;;;;;;;-144.73;100.00;54456.97;5036752;28;20040;-71
2023/09/15 04:55:11;;;;;;;10.10;4.93;;;;;;;-144.73;100.00;54444.66;5035990;28;20037;-70
2023/09/15 04:57:37;;;;;;;13.20;3.90;;;;;;;-144.73;100.00;54477.47;5035874;28;20057;-70
2023/09/15 05:00:04;;;;;;;10.38;4.65;;;;;;;-144.73;100.00;54473.38;5051838;28;20036;-70
2023/09/15 05:02:30;;;;;;;9.23;4.35;;;;;;;-144.73;100.00;54456.97;5055831;28;20126;-71
2023/09/15 05:04:55;;;;;;;6.45;4.65;;;;;;;-144.73;100.00;54452.84;5055713;28;20025;-71
2023/09/15 05:07:20;;;;;;;11.48;4.10;;;;;;;-144.73;100.00;54456.97;5056418;28;20047;-70
2023/09/15 05:09:46;;;;;;;12.57;5.18;;;;;;;-144.73;100.00;54475.44;5055718;28;20051;-70
2023/09/15 05:12:13;;;;;;;10.48;5.13;;;;;;;-144.73;100.00;54493.91;5055777;28;20104;-70
2023/09/15 05:14:39;;;;;;;12.90;5.07;;;;;;;-144.73;100.00;54477.47;5056143;28;20055;-71
2023/09/15 05:17:04;;;;;;;8.88;4.82;;;;;;;-144.73;100.00;54516.47;5055705;28;20048;-71
2023/09/15 05:19:30;;;;;;;14.43;4.53;;;;;;;-144.73;100.00;54481.59;5055790;28;20383;-71
2023/09/15 05:21:55;;;;;;;13.65;4.88;;;;;;;-144.73;100.00;54498.00;5054663;28;20049;-71
2023/09/15 05:24:20;;;;;;;11.10;5.13;;;;;;;-144.73;100.00;54461.06;5055020;28;20024;-71
2023/09/15 05:26:46;;;;;;;13.98;4.93;;;;;;;-144.73;100.00;54456.97;5054995;28;20040;-71
2023/09/15 05:29:12;;;;;;;9.77;4.47;;;;;;;-144.73;100.00;54428.22;5055222;28;20056;-71
2023/09/15 05:31:37;;;;;;;9.30;4.68;;;;;;;-144.73;100.00;54456.97;5054542;28;20036;-70
2023/09/15 05:34:03;;;;;;;14.60;4.97;;;;;;;-144.73;100.00;54465.16;5054399;28;20472;-70
2023/09/15 05:36:28;;;;;;;16.80;6.05;;;;;;;-144.73;100.00;54456.97;5054606;28;20179;-71
2023/09/15 05:38:54;;;;;;;12.40;6.15;;;;;;;-144.73;100.00;54485.69;5054648;28;20021;-71
2023/09/15 05:41:20;;;;;;;16.60;5.78;;;;;;;-144.73;100.00;54444.66;5053791;28;20033;-71
2023/09/15 05:43:46;;;;;;;10.95;5.40;;;;;;;-144.73;100.00;54469.28;5054188;28;20040;-72
2023/09/15 05:46:11;;;;;;;14.02;4.88;;;;;;;-144.73;100.00;54440.53;5053918;28;20067;-71
2023/09/15 05:48:37;;;;;;;13.82;5.47;;;;;;;-144.73;100.00;54465.16;5054352;28;20059;-71
2023/09/15 05:51:03;;;;;;;11.52;5.82;;;;;;;-144.73;100.00;54465.16;5053896;28;20095;-71
2023/09/15 05:53:30;;;;;;;14.75;5.07;;;;;;;-144.73;100.00;54469.28;5054915;28;20106;-71
2023/09/15 05:55:57;;;;;;;11.43;5.53;;;;;;;-144.73;100.00;54481.59;5053933;28;20035;-71
2023/09/15 05:58:22;;;;;;;16.23;5.53;;;;;;;-144.73;100.00;54489.81;5054369;28;20028;-70
2023/09/15 06:00:50;;;;;;;14.85;5.35;;;;;;;-144.73;100.00;54506.22;5053374;28;20033;-71
2023/09/15 06:03:16;;;;;;;9.35;5.57;;;;;;;-144.73;100.00;54498.00;5054235;28;20059;-71
2023/09/15 06:05:41;;;;;;;14.65;6.07;;;;;;;-144.73;100.00;54506.22;5053965;28;20033;-71
2023/09/15 06:08:08;;;;;;;10.35;5.57;;;;;;;-144.73;100.00;54493.91;5054554;28;20074;-71
2023/09/15 06:10:36;;;;;;;11.57;5.70;;;;;;;-144.73;100.00;54498.00;5053627;28;20040;-71
2023/09/15 06:13:01;;;;;;;15.57;5.10;;;;;;;-144.73;100.00;54485.69;5053798;28;20063;-71
2023/09/15 06:15:27;;;;;;;18.17;7.18;;;;;;;-144.73;100.00;54473.38;5053992;28;20052;-71
2023/09/15 06:17:52;;;;;;;7.07;5.00;;;;;;;-144.73;100.00;54448.75;5053545;28;20029;-71
2023/09/15 06:20:17;;;;;;;14.68;5.65;;;;;;;-144.73;100.00;54452.84;5053415;28;20238;-71
2023/09/15 06:22:43;;;;;;;10.60;4.55;;;;;;;-144.73;100.00;54481.59;5054251;28;20029;-71
2023/09/15 06:25:08;;;;;;;14.07;5.55;;;;;;;-144.73;100.00;54510.31;5053934;28;20047;-71
2023/09/15 06:27:34;;;;;;;10.65;5.22;;;;;;;-144.73;100.00;54477.47;5054808;28;20037;-71
2023/09/15 06:30:00;;;;;;;16.15;5.57;;;;;;;-144.73;100.00;54463.13;5053135;28;20036;-71
2023/09/15 06:32:26;;;;;;;8.05;4.40;;;;;;;-144.73;100.00;54461.06;5053590;28;20059;-71
2023/09/15 06:34:51;;;;;;;9.27;4.90;;;;;;;-144.73;100.00;54461.06;5053016;28;20025;-71
2023/09/15 06:37:17;;;;;;;11.02;4.70;;;;;;;-144.73;100.00;54493.91;5053279;28;20017;-71
2023/09/15 06:39:42;;;;;;;8.40;4.85;;;;;;;-144.73;100.00;54510.31;5052717;28;20507;-71
2023/09/15 06:42:10;;;;;;;14.25;5.30;;;;;;;-144.73;100.00;54440.53;5053189;28;20044;-71
2023/09/15 06:44:36;;;;;;;14.35;4.72;;;;;;;-144.73;100.00;54481.59;5052526;28;20110;-71
2023/09/15 06:47:03;;;;;;;7.97;4.43;;;;;;;-144.73;100.00;54469.28;5051865;28;20037;-71
2023/09/15 06:49:30;;;;;;;11.38;4.63;;;;;;;-144.73;100.00;54473.38;5052257;28;20024;-71
2023/09/15 06:51:55;;;;;;;12.55;4.68;;;;;;;-144.73;100.00;54487.75;5051567;28;20041;-71
2023/09/15 06:54:21;;;;;;;18.75;4.47;;;;;;;-144.73;100.00;54493.91;5052535;28;20024;-71
2023/09/15 06:56:47;;;;;;;10.98;4.45;;;;;;;-144.73;100.00;54473.38;5051967;28;20036;-71
2023/09/15 06:59:13;;;;;;;15.48;4.70;;;;;;;-144.73;100.00;54456.97;5051724;28;20484;-71
2023/09/15 07:01:39;;;;;;;9.88;4.18;;;;;;;-144.73;100.00;54493.91;5051239;28;20051;-71
2023/09/15 07:04:05;;;;;;;10.57;4.32;;;;;;;-144.73;100.00;54440.53;5052563;28;20472;-71
2023/09/15 07:06:31;;;;;;;10.43;3.95;;;;;;;-144.73;100.00;54428.22;5050595;28;20086;-70
2023/09/15 07:08:57;;;;;;;9.18;3.20;;;;;;;-144.73;100.00;54469.28;5051806;28;20029;-70
2023/09/15 07:11:22;;;;;;;11.68;4.53;;;;;;;-144.73;100.00;54461.06;5051073;28;20052;-71
2023/09/15 07:13:48;;;;;;;6.13;4.00;;;;;;;-144.73;100.00;54502.13;5051856;28;20095;-71
2023/09/15 07:16:14;;;;;;;6.60;3.20;;;;;;;-144.73;100.00;54477.47;5051414;28;20040;-70
2023/09/15 07:18:39;;;;;;;12.30;4.80;;;;;;;-144.73;100.00;54465.16;5051650;28;20043;-71
2023/09/15 07:21:04;;;;;;;11.85;4.25;;;;;;;-144.73;100.00;54510.31;5050715;28;20120;-71
2023/09/15 07:23:30;;;;;;;6.38;3.70;;;;;;;-144.73;100.00;54473.38;5051554;28;20028;-71
2023/09/15 07:25:55;;;;;;;4.97;3.50;;;;;;;-144.73;100.00;54493.91;5050615;28;20095;-71
2023/09/15 07:28:21;;;;;;;4.50;3.13;;;;;;;-144.73;100.00;54481.59;5051912;28;20375;-72
2023/09/15 07:30:46;;;;;;;7.10;3.33;;;;;;;-144.73;100.00;54465.16;5051129;28;20127;-71
2023/09/15 07:33:12;;;;;;;10.13;4.00;;;;;;;-144.73;100.00;54498.00;5051391;28;20109;-71
2023/09/15 07:35:37;;;;;;;11.27;3.50;;;;;;;-144.73;100.00;54461.06;5051126;28;20040;-72
2023/09/15 07:38:03;;;;;;;12.15;3.78;;;;;;;-144.73;100.00;54479.53;5052071;28;20025;-71
2023/09/15 07:40:29;;;;;;;15.60;3.58;;;;;;;-144.73;100.00;54481.59;5050221;28;20071;-71
2023/09/15 07:42:54;;;;;;;7.70;3.70;;;;;;;-144.73;100.00;54456.97;5050886;28;20084;-70
2023/09/15 07:45:20;;;;;;;12.55;3.47;;;;;;;-144.73;100.00;54461.06;5050065;28;20037;-70
2023/09/15 07:47:46;;;;;;;8.30;2.67;;;;;;;-144.73;100.00;54491.84;5051010;28;20112;-71
2023/09/15 07:50:13;;;;;;;11.63;3.47;;;;;;;-144.73;100.00;54489.81;5050239;28;20033;-71
2023/09/15 07:52:58;;;;;;;7.85;3.47;;;;;;;-144.73;100.00;54456.97;5051220;28;20021;-70
2023/09/15 07:55:24;;;;;;;9.13;3.95;;;;;;;-144.73;100.00;54477.47;5050539;28;20040;-71
2023/09/15 07:57:49;;;;;;;9.85;3.65;;;;;;;-144.73;100.00;54452.84;5050603;28;20029;-70
2023/09/15 08:00:15;;;;;;;8.60;3.45;;;;;;;-144.73;100.00;54448.75;5050445;28;20102;-71
2023/09/15 08:02:40;;;;;;;10.98;3.10;;;;;;;-144.73;100.00;54477.47;5051154;28;20029;-71
2023/09/15 08:05:06;;;;;;;9.15;3.05;;;;;;;-144.73;100.00;54440.53;5050427;28;20057;-71
2023/09/15 08:07:32;;;;;;;11.73;3.25;;;;;;;-144.73;100.00;54432.31;5051448;28;20068;-70
2023/09/15 08:09:58;;;;;;;10.75;3.35;;;;;;;-144.73;100.00;54448.75;5050971;28;20472;-71
2023/09/15 08:12:24;;;;;;;5.95;2.92;;;;;;;-144.73;100.00;54461.06;5051026;28;20063;-71
2023/09/15 08:14:49;;;;;;;9.25;2.90;;;;;;;-144.73;100.00;54495.97;5050428;28;20025;-71
2023/09/15 08:17:16;;;;;;;13.55;2.92;;;;;;;-144.73;100.00;54424.13;5053342;28;20048;-71
2023/09/15 08:19:42;;;;;;;10.40;3.10;;;;;;;-144.73;100.00;54487.75;5053873;28;20495;-71
2023/09/15 08:22:07;;;;;;;19.75;2.70;;;;;;;-144.73;100.00;54485.69;5054211;28;20067;-72
2023/09/15 08:24:33;;;;;;;7.13;3.10;;;;;;;-144.73;100.00;54444.66;5055174;28;20021;-71
2023/09/15 08:26:58;;;;;;;8.25;2.95;;;;;;;-144.73;100.00;54420.00;5053550;28;20090;-71
2023/09/15 08:29:23;;;;;;;8.27;2.83;;;;;;;-144.73;100.00;54411.81;5054326;28;20036;-71
2023/09/15 08:31:49;;;;;;;19.67;4.68;;;;;;;-144.73;100.00;54448.75;5055166;28;20033;-69
2023/09/15 08:34:14;;;;;;;12.23;4.93;;;;;;;-144.73;100.00;54432.31;5035038;28;20036;-69
2023/09/15 08:36:41;;;;;;;13.88;4.57;;;;;;;-144.73;100.00;54475.44;5032848;28;20036;-69
2023/09/15 08:39:06;;;;;;;8.30;2.95;;;;;;;-144.73;100.00;54448.75;5046385;28;20026;-69
2023/09/15 08:41:42;;;;;;;15.93;3.80;;;;;;;-144.73;100.00;54461.06;5037662;28;20038;-69
2023/09/15 08:44:11;;;;;;;20.67;3.95;;;;;;;-144.73;100.00;54432.31;5038477;28;20021;-69
2023/09/15 08:46:39;;;;;;;10.15;3.22;;;;;;;-144.73;98.51;54407.69;5037105;28;20093;-70
2023/09/15 08:49:05;;;;;;;6.28;2.60;;;;;;;-144.73;94.63;54411.81;5038314;28;20033;-69
2023/09/15 08:51:31;;;;;;;7.03;2.47;;;;;;;-144.73;94.14;54411.81;5037811;28;20048;-70
2023/09/15 08:53:57;;;;;;;7.65;3.10;;;;;;;-144.73;95.74;54432.31;5039537;28;20029;-70
2023/09/15 08:56:24;;;;;;;8.95;2.90;;;;;;;-144.73;90.56;54407.69;5056521;28;20033;-69
2023/09/15 08:58:49;;;;;;;6.70;2.40;;;;;;;-144.73;88.49;54407.69;5057364;28;20112;-69
2023/09/15 09:01:18;;;;;;;8.45;2.97;;;;;;;-144.73;88.41;54420.00;5054645;28;20067;-69
2023/09/15 09:03:43;;;;;;;12.93;2.97;;;;;;;-144.73;88.62;54446.69;5047563;28;20041;-68
2023/09/15 09:06:10;;;;;;;10.45;3.05;;;;;;;-144.73;86.96;54444.66;5035793;28;20045;-69
2023/09/15 09:08:41;;;;;;;10.25;3.45;;;;;;;-144.73;85.19;54432.31;5037016;28;20028;-69
2023/09/15 09:11:08;;;;;;;6.07;3.40;;;;;;;-144.73;83.54;54428.22;5035958;28;20100;-69
2023/09/15 09:13:34;;;;;;;5.82;3.00;;;;;;;-144.73;83.19;54440.53;5037041;28;20021;-69
2023/09/15 09:16:00;;;;;;;6.30;2.70;;;;;;;-144.73;81.72;54407.69;5035724;28;20037;-70
2023/09/15 09:18:26;;;;;;;7.05;3.13;;;;;;;-144.73;79.57;54391.28;5047496;28;20021;-69
2023/09/15 09:20:51;;;;;;;6.20;2.55;;;;;;;-144.73;79.03;54383.06;5055184;28;20029;-70
2023/09/15 09:23:18;;;;;;;7.82;2.88;;;;;;;-144.73;78.58;54436.44;5054544;28;20067;-70
2023/09/15 09:25:45;;;;;;;6.90;2.80;;;;;;;-144.73;75.70;54362.53;5053918;28;20033;-70
2023/09/15 09:28:12;;;;;;;6.30;2.58;;;;;;;-144.73;76.21;54411.81;5053464;28;20032;-70
2023/09/15 09:30:38;;;;;;;6.90;2.42;;;;;;;-144.73;75.78;54407.69;5052068;28;20039;-69
2023/09/15 09:33:05;;;;;;;7.85;2.42;;;;;;;-144.73;75.53;54395.38;5034394;28;20017;-70
2023/09/15 09:35:30;;;;;;;5.05;2.13;;;;;;;-144.73;75.86;54387.19;5034092;28;20119;-70
2023/09/15 09:37:59;;;;;;;13.27;2.83;;;;;;;-144.73;75.36;54376.91;5035345;28;20021;-70
2023/09/15 09:40:25;;;;;;;9.35;2.80;;;;;;;-144.73;73.24;54407.69;5035541;28;20026;-69
2023/09/15 09:42:54;;;;;;;9.02;2.70;;;;;;;-144.73;72.65;54407.69;5034521;28;20049;-70
2023/09/15 09:45:30;;;;;;;5.68;2.38;;;;;;;-144.73;72.94;54395.38;5035092;28;20112;-70
2023/09/15 09:48:00;;;;;;;6.05;2.58;;;;;;;-144.73;70.50;54389.22;5033438;28;20033;-70
2023/09/15 09:50:28;;;;;;;6.05;2.58;;;;;;;-144.73;69.37;54424.13;5051767;28;20056;-69
2023/09/15 09:52:55;;;;;;;16.13;3.15;;;;;;;-144.73;69.69;54378.97;5051853;28;20016;-70
2023/09/15 09:55:21;;;;;;;4.78;2.78;;;;;;;-144.73;68.19;54424.13;5034190;28;20091;-70
2023/09/15 09:57:47;;;;;;;12.32;3.28;;;;;;;-144.73;69.16;54370.75;5033314;28;20025;-70
2023/09/15 10:00:20;;;;;;;5.15;2.67;;;;;;;-144.73;69.74;54409.75;5032474;28;20045;-69
2023/09/15 10:02:45;;;;;;;7.82;3.33;;;;;;;-144.73;68.03;54374.84;5024540;28;20084;-69
2023/09/15 10:05:11;;;;;;;14.43;3.08;;;;;;;-144.73;66.20;54391.28;5053266;28;20040;-70
2023/09/15 10:07:36;;;;;;;10.77;3.08;;;;;;;-144.73;66.05;54389.22;5038693;28;20084;-70
2023/09/15 10:10:03;;;;;;;10.07;3.10;;;;;;;-144.73;68.01;54391.28;5048270;28;20040;-69
2023/09/15 10:12:29;;;;;;;5.95;3.08;;;;;;;-144.73;68.69;54407.69;5049723;28;20499;-70
2023/09/15 10:14:55;;;;;;;6.07;3.00;;;;;;;-144.73;67.95;54424.13;5051262;28;20021;-69
2023/09/15 10:17:22;;;;;;;8.52;3.33;;;;;;;-144.73;66.52;54354.34;5033711;28;20017;-70
2023/09/15 10:19:48;;;;;;;7.63;3.65;;;;;;;-144.73;64.51;54411.81;5031262;28;20039;-70
2023/09/15 10:22:15;;;;;;;8.95;3.60;;;;;;;-144.73;64.17;54358.44;5051182;28;20025;-69
2023/09/15 10:24:44;;;;;;;8.27;3.42;;;;;;;-144.73;64.19;54383.06;5045765;28;20026;-70
2023/09/15 10:27:11;;;;;;;8.55;3.20;;;;;;;-144.73;64.95;54370.75;5044856;28;20036;-70
2023/09/15 10:29:37;;;;;;;9.18;3.13;;;;;;;-144.73;67.15;54383.06;5039446;28;20030;-69
2023/09/15 10:32:03;;;;;;;5.38;2.90;;;;;;;-144.73;66.32;54385.13;5040718;28;20504;-70
2023/09/15 10:34:31;;;;;;;6.13;2.95;;;;;;;-144.73;65.06;54362.53;5034817;28;20393;-70
2023/09/15 10:37:01;;;;;;;8.80;3.20;;;;;;;-144.73;66.12;54317.38;5037135;28;20029;-69
2023/09/15 10:39:36;;;;;;;7.75;3.50;;;;;;;-144.73;63.69;54409.75;5034563;28;20034;-70
2023/09/15 10:42:09;;;;;;;5.45;3.33;;;;;;;-144.73;66.89;54407.69;5033661;28;20033;-70
2023/09/15 10:44:35;;;;;;;7.68;3.10;;;;;;;-144.73;65.77;54366.66;5037181;28;20025;-70
2023/09/15 10:47:01;;;;;;;5.88;3.55;;;;;;;-144.73;64.49;54391.28;5036367;28;20060;-70
2023/09/15 10:49:26;;;;;;;7.75;3.78;;;;;;;-144.73;64.12;54391.28;5043651;28;20084;-70
2023/09/15 10:51:53;;;;;;;4.63;2.75;;;;;;;-144.73;63.73;54411.81;5026064;28;20037;-71
2023/09/15 10:54:19;;;;;;;4.63;2.67;;;;;;;-144.73;64.61;54366.66;5040355;28;20044;-71
2023/09/15 10:56:45;;;;;;;5.75;3.15;;;;;;;-144.73;64.53;54366.66;5046583;28;20182;-70
2023/09/15 10:59:11;;;;;;;7.13;3.15;;;;;;;-144.73;65.37;54362.53;5047125;28;20115;-68
2023/09/15 11:01:36;;;;;;;6.82;3.70;;;;;;;-144.73;65.31;54366.66;5037192;28;20461;-69
2023/09/15 11:04:04;;;;;;;8.48;2.58;;;;;;;-144.73;64.86;54350.22;5043873;28;20044;-70